Time;durP1;ratioP1;P1;durP2;ratioP2;P2;SDS_P1;SDS_P2;PMS_P1;PMS_P2;Temp;Humidity;BMP_temperature;BMP_pressure;BME280_temperature;BME280_humidity;BME280_pressure;Samples;Min_cycle;Max_cycle;Signal;HPM_P1;HPM_P2
2021/11/04 00:00:36;;;;;;;32.50;15.90;;;;;;;7.13;65.09;98350.42;113410;1193;107426;-71
2021/11/04 00:03:16;;;;;;;32.30;16.20;;;;;;;7.07;64.87;98355.28;113457;1193;96890;-70
2021/11/04 00:05:45;;;;;;;35.50;16.40;;;;;;;7.00;65.05;98350.98;113813;1192;98974;-72
2021/11/04 00:08:13;;;;;;;36.90;17.60;;;;;;;6.99;65.05;98351.36;113407;1193;112555;-70
2021/11/04 00:10:41;;;;;;;38.60;18.40;;;;;;;7.02;65.15;98349.96;113727;1192;98869;-72
2021/11/04 00:13:08;;;;;;;36.10;18.00;;;;;;;7.04;65.22;98350.14;113311;1193;107620;-71
2021/11/04 00:15:37;;;;;;;35.80;18.40;;;;;;;7.06;65.28;98347.54;113297;1193;98976;-71
2021/11/04 00:18:05;;;;;;;36.60;17.30;;;;;;;7.09;65.22;98344.38;113315;1193;98999;-70
2021/11/04 00:20:33;;;;;;;34.10;16.50;;;;;;;7.12;65.07;98341.70;113363;1192;112460;-71
2021/11/04 00:23:02;;;;;;;35.70;17.80;;;;;;;7.13;65.35;98345.80;113402;1193;96927;-71
2021/11/04 00:25:32;;;;;;;34.70;17.30;;;;;;;7.15;65.31;98345.85;113331;1193;107649;-70
2021/11/04 00:28:01;;;;;;;36.10;17.30;;;;;;;7.16;65.34;98349.52;113332;1193;96399;-71
2021/11/04 00:30:30;;;;;;;33.60;16.10;;;;;;;7.16;65.07;98349.86;113409;1193;98928;-70
2021/11/04 00:32:58;;;;;;;37.20;18.10;;;;;;;7.18;65.29;98347.83;113370;1193;112533;-70
2021/11/04 00:35:26;;;;;;;37.00;17.00;;;;;;;7.17;65.20;98340.27;113348;1193;98929;-71
2021/11/04 00:37:56;;;;;;;31.80;15.50;;;;;;;7.11;64.97;98350.38;113450;1192;107502;-69
2021/11/04 00:40:25;;;;;;;32.60;15.40;;;;;;;7.03;65.08;98344.27;113458;1192;98872;-71
2021/11/04 00:42:53;;;;;;;36.00;16.30;;;;;;;7.00;64.89;98338.27;113879;1193;99030;-70
2021/11/04 00:45:22;;;;;;;36.00;17.20;;;;;;;6.96;65.10;98338.54;113705;1192;112975;-69
2021/11/04 00:47:52;;;;;;;34.50;16.80;;;;;;;6.95;65.13;98340.05;113356;1193;99040;-70
2021/11/04 00:50:24;;;;;;;33.50;16.70;;;;;;;6.98;65.07;98343.02;113666;1193;107444;-71
2021/11/04 00:52:53;;;;;;;35.40;16.90;;;;;;;7.00;65.17;98347.44;113327;1193;98968;-72
2021/11/04 00:55:21;;;;;;;35.80;17.00;;;;;;;7.00;65.15;98343.53;113364;1193;98917;-70
2021/11/04 00:57:53;;;;;;;37.40;18.10;;;;;;;7.01;65.23;98333.10;113346;1193;112743;-66
2021/11/04 01:00:20;;;;;;;37.00;17.60;;;;;;;7.04;65.36;98328.67;113318;1193;98897;-68
2021/11/04 01:02:50;;;;;;;35.00;18.20;;;;;;;7.07;65.21;98325.28;113315;1193;107817;-70
2021/11/04 01:05:19;;;;;;;39.50;19.00;;;;;;;7.07;65.23;98322.08;113753;1193;99009;-71
2021/11/04 01:07:47;;;;;;;36.50;18.70;;;;;;;7.08;65.26;98321.83;113850;1192;99124;-69
2021/11/04 01:10:16;;;;;;;37.40;19.30;;;;;;;7.10;65.31;98321.52;113390;1193;112695;-70
2021/11/04 01:12:46;;;;;;;37.00;18.90;;;;;;;7.12;65.40;98310.13;113877;1193;99565;-69
2021/11/04 01:15:15;;;;;;;35.70;17.20;;;;;;;7.14;65.31;98308.74;113850;1192;107423;-71
2021/11/04 01:17:44;;;;;;;36.70;18.20;;;;;;;7.15;65.36;98304.58;113837;1192;98999;-71
2021/11/04 01:20:13;;;;;;;34.10;17.70;;;;;;;7.16;65.36;98307.73;113498;1193;99047;-71
2021/11/04 01:22:42;;;;;;;35.90;18.00;;;;;;;7.16;65.52;98313.17;113858;1192;112577;-71
2021/11/04 01:25:11;;;;;;;39.60;18.60;;;;;;;7.16;65.35;98309.99;113429;1193;98950;-70
2021/11/04 01:27:39;;;;;;;35.50;17.80;;;;;;;7.18;65.41;98304.94;113397;1193;105952;-72
2021/11/04 01:30:09;;;;;;;37.70;18.40;;;;;;;7.19;65.52;98305.73;113445;1193;98927;-70
2021/11/04 01:32:38;;;;;;;37.50;19.30;;;;;;;7.21;65.38;98301.92;113655;1193;98912;-71
2021/11/04 01:35:08;;;;;;;37.20;17.70;;;;;;;7.22;65.46;98301.33;113701;1193;112538;-71
2021/11/04 01:37:37;;;;;;;34.00;17.70;;;;;;;7.23;65.53;98289.43;113862;1192;96425;-71
2021/11/04 01:40:07;;;;;;;37.30;18.10;;;;;;;7.24;65.59;98274.55;113819;1192;107422;-71
2021/11/04 01:42:36;;;;;;;36.90;18.30;;;;;;;7.24;65.43;98265.86;113398;1193;98902;-72
2021/11/04 01:45:04;;;;;;;37.90;19.00;;;;;;;7.25;65.53;98263.91;113393;1192;98901;-71
2021/11/04 01:47:36;;;;;;;35.80;18.60;;;;;;;7.25;65.46;98266.33;113347;1192;112518;-72
2021/11/04 01:50:04;;;;;;;38.60;19.60;;;;;;;7.26;65.49;98269.81;113432;1192;98960;-70
2021/11/04 01:52:32;;;;;;;36.40;18.10;;;;;;;7.25;65.41;98267.38;113458;1193;107595;-69
2021/11/04 01:55:00;;;;;;;35.30;18.30;;;;;;;7.25;65.74;98263.52;113478;1193;99673;-70
2021/11/04 01:57:29;;;;;;;37.90;19.60;;;;;;;7.25;65.61;98255.27;113434;1193;99045;-69
2021/11/04 01:59:57;;;;;;;36.40;18.80;;;;;;;7.24;65.57;98249.65;113661;1193;111521;-70
2021/11/04 02:02:33;;;;;;;34.00;17.80;;;;;;;7.25;65.46;98246.96;113783;1192;98913;-70
2021/11/04 02:05:07;;;;;;;35.10;18.10;;;;;;;7.25;65.51;98249.80;113825;1192;107837;-70
2021/11/04 02:07:48;;;;;;;37.20;18.80;;;;;;;7.25;65.60;98244.85;113428;1192;99009;-70
2021/11/04 02:10:26;;;;;;;32.20;16.70;;;;;;;7.24;65.53;98240.47;113372;1192;99063;-70
2021/11/04 02:13:13;;;;;;;35.40;17.10;;;;;;;7.21;65.55;98234.03;113374;1192;112843;-70
2021/11/04 02:15:43;;;;;;;33.20;16.10;;;;;;;7.20;65.62;98229.13;113323;1193;98987;-69
2021/11/04 02:18:16;;;;;;;35.40;15.90;;;;;;;7.21;65.58;98232.08;113345;1193;108820;-67
2021/11/04 02:21:02;;;;;;;33.00;16.40;;;;;;;7.22;65.43;98229.73;113770;1192;99073;-69
2021/11/04 02:23:43;;;;;;;32.00;15.50;;;;;;;7.20;65.54;98223.32;113336;1193;98999;-69
2021/11/04 02:26:12;;;;;;;29.80;14.70;;;;;;;7.20;65.50;98218.01;113361;1192;112532;-69
2021/11/04 02:28:42;;;;;;;30.30;15.30;;;;;;;7.16;65.39;98220.41;113370;1192;98957;-69
2021/11/04 02:31:13;;;;;;;30.30;15.40;;;;;;;7.12;65.35;98223.17;113365;1192;107493;-69
2021/11/04 02:33:43;;;;;;;32.60;15.90;;;;;;;7.07;65.39;98233.63;113412;1192;99098;-69
2021/11/04 02:36:13;;;;;;;32.30;15.00;;;;;;;6.99;65.34;98229.94;113467;1193;98927;-70
2021/11/04 02:38:42;;;;;;;30.30;15.20;;;;;;;6.95;65.32;98220.38;113453;1192;112534;-70
2021/11/04 02:41:11;;;;;;;32.60;15.30;;;;;;;6.87;65.47;98223.02;113841;1193;98978;-70
2021/11/04 02:43:41;;;;;;;31.50;15.80;;;;;;;6.81;65.50;98226.59;113845;1192;107460;-69
2021/11/04 02:46:12;;;;;;;34.00;17.00;;;;;;;6.76;65.44;98221.70;113519;1192;98871;-69
2021/11/04 02:48:42;;;;;;;32.50;15.80;;;;;;;6.74;65.73;98221.30;113843;1193;98946;-69
2021/11/04 02:51:10;;;;;;;34.10;16.30;;;;;;;6.76;65.84;98215.89;113462;1176;111181;-70
2021/11/04 02:53:45;;;;;;;31.20;16.40;;;;;;;6.80;65.79;98203.09;113450;1192;98865;-71
2021/11/04 02:56:14;;;;;;;32.20;15.60;;;;;;;6.85;66.02;98203.80;113765;1193;107489;-71
2021/11/04 02:58:43;;;;;;;34.90;17.00;;;;;;;6.89;66.00;98208.61;113796;1193;99463;-70
2021/11/04 03:01:11;;;;;;;32.60;16.70;;;;;;;6.93;65.90;98207.64;113488;1192;98907;-71
2021/11/04 03:03:38;;;;;;;32.00;15.00;;;;;;;6.96;66.01;98202.48;113480;1192;112847;-71
2021/11/04 03:06:06;;;;;;;29.50;14.60;;;;;;;6.99;66.02;98202.06;113411;1192;98876;-71
2021/11/04 03:08:36;;;;;;;31.50;15.70;;;;;;;7.01;65.87;98198.44;113462;1193;107601;-71
2021/11/04 03:11:04;;;;;;;31.80;15.60;;;;;;;7.02;66.04;98179.86;113321;1193;98920;-71
2021/11/04 03:13:32;;;;;;;30.40;15.30;;;;;;;7.03;65.89;98173.94;113461;1193;99004;-71
2021/11/04 03:16:03;;;;;;;31.50;14.60;;;;;;;7.03;65.91;98169.70;113482;1192;112834;-70
2021/11/04 03:18:33;;;;;;;30.40;15.40;;;;;;;7.05;65.99;98169.62;113456;1192;99597;-71
2021/11/04 03:21:02;;;;;;;33.70;15.70;;;;;;;7.06;66.02;98159.14;113349;1192;107802;-68
2021/11/04 03:23:31;;;;;;;30.80;14.30;;;;;;;7.07;66.04;98156.03;113095;1195;99002;-71
2021/11/04 03:26:01;;;;;;;28.90;14.00;;;;;;;7.10;66.17;98159.54;113415;1193;99007;-67
2021/11/04 03:28:31;;;;;;;32.80;14.00;;;;;;;7.12;66.09;98154.05;113431;1193;112505;-70
2021/11/04 03:31:01;;;;;;;29.20;14.00;;;;;;;7.15;66.20;98146.11;113507;1192;98974;-71
2021/11/04 03:33:32;;;;;;;29.20;14.00;;;;;;;7.17;66.21;98154.98;113475;1193;107518;-71
2021/11/04 03:36:03;;;;;;;29.90;14.60;;;;;;;7.19;66.32;98166.83;113449;1192;99116;-71
2021/11/04 03:38:32;;;;;;;26.90;14.20;;;;;;;7.21;66.16;98183.58;113419;1193;96396;-70
2021/11/04 03:41:02;;;;;;;26.90;13.30;;;;;;;7.23;66.30;98192.59;113358;1193;112483;-69
2021/11/04 03:43:33;;;;;;;30.30;13.20;;;;;;;7.25;66.34;98198.61;113413;1193;99000;-70
2021/11/04 03:46:04;;;;;;;28.50;13.30;;;;;;;7.27;66.38;98188.98;113380;1193;107620;-71
2021/11/04 03:48:41;;;;;;;28.60;14.50;;;;;;;7.29;66.40;98194.49;113333;1193;99011;-70
2021/11/04 03:51:11;;;;;;;30.30;14.50;;;;;;;7.28;66.46;98188.35;113332;1193;99016;-70
2021/11/04 03:53:41;;;;;;;28.10;13.90;;;;;;;7.29;66.45;98186.52;113323;1193;112255;-70
2021/11/04 03:56:11;;;;;;;30.60;14.70;;;;;;;7.30;66.39;98183.29;113307;1192;96322;-70
2021/11/04 03:58:41;;;;;;;27.60;13.80;;;;;;;7.31;66.38;98175.11;113397;1192;107481;-71
2021/11/04 04:01:11;;;;;;;29.50;14.00;;;;;;;7.32;66.43;98162.70;113366;1193;96435;-72
2021/11/04 04:03:43;;;;;;;28.90;14.20;;;;;;;7.32;66.32;98156.71;113366;1192;98973;-70
2021/11/04 04:06:12;;;;;;;26.60;11.70;;;;;;;7.33;66.37;98155.55;113759;1192;111405;-70
2021/11/04 04:08:46;;;;;;;25.40;11.90;;;;;;;7.32;66.12;98149.27;113427;1193;99007;-71
2021/11/04 04:11:14;;;;;;;23.40;10.90;;;;;;;7.29;66.38;98138.75;113282;1192;107513;-71
2021/11/04 04:13:43;;;;;;;23.50;10.80;;;;;;;7.29;66.30;98139.09;113419;1192;98926;-69
2021/11/04 04:16:11;;;;;;;25.10;11.50;;;;;;;7.28;66.32;98137.56;113590;1192;96344;-70
2021/11/04 04:18:39;;;;;;;24.80;10.50;;;;;;;7.29;66.35;98139.48;113772;1193;112477;-69
2021/11/04 04:21:07;;;;;;;24.50;11.10;;;;;;;7.31;66.48;98135.42;113737;1192;98909;-68
2021/11/04 04:23:34;;;;;;;26.60;11.10;;;;;;;7.35;66.43;98138.87;113698;1192;107336;-69
2021/11/04 04:26:04;;;;;;;24.70;11.00;;;;;;;7.39;66.72;98135.56;113798;1192;97439;-70
2021/11/04 04:28:35;;;;;;;25.40;12.20;;;;;;;7.41;66.54;98137.86;113769;1193;99622;-69
2021/11/04 04:31:04;;;;;;;28.60;11.80;;;;;;;7.44;66.68;98132.02;113726;1193;112549;-70
2021/11/04 04:33:32;;;;;;;23.40;11.30;;;;;;;7.46;66.72;98129.55;113623;1192;98990;-69
2021/11/04 04:36:00;;;;;;;27.30;12.30;;;;;;;7.48;66.75;98121.86;113436;1186;106003;-69
2021/11/04 04:38:27;;;;;;;26.00;13.00;;;;;;;7.50;66.72;98117.09;113705;1192;99036;-70
2021/11/04 04:40:55;;;;;;;27.00;13.50;;;;;;;7.53;66.52;98114.06;113778;1192;96316;-70
2021/11/04 04:43:23;;;;;;;27.10;13.10;;;;;;;7.55;66.71;98110.19;113771;1193;111537;-72
2021/11/04 04:45:52;;;;;;;29.50;14.10;;;;;;;7.57;66.68;98106.84;113458;1192;96494;-70
2021/11/04 04:48:22;;;;;;;29.70;14.20;;;;;;;7.60;66.58;98098.36;113416;1192;107484;-69
2021/11/04 04:50:50;;;;;;;26.30;13.90;;;;;;;7.62;66.81;98094.69;113707;1192;99038;-70
2021/11/04 04:53:19;;;;;;;28.80;14.00;;;;;;;7.64;66.75;98098.42;113775;1193;99031;-70
2021/11/04 04:55:47;;;;;;;29.20;14.10;;;;;;;7.66;66.62;98101.08;113418;1192;112412;-71
2021/11/04 04:58:15;;;;;;;27.20;13.50;;;;;;;7.67;66.92;98101.81;113388;1192;98891;-69
2021/11/04 05:00:42;;;;;;;27.50;12.50;;;;;;;7.70;66.87;98101.27;113451;1192;107508;-70
2021/11/04 05:03:10;;;;;;;27.60;12.40;;;;;;;7.73;66.77;98103.02;113373;1192;97156;-69
2021/11/04 05:05:38;;;;;;;24.40;11.50;;;;;;;7.75;66.71;98110.45;113353;1192;98903;-69
2021/11/04 05:08:06;;;;;;;26.10;10.70;;;;;;;7.77;66.67;98114.88;113541;1193;112538;-68
2021/11/04 05:10:34;;;;;;;24.70;10.00;;;;;;;7.79;66.84;98113.66;113373;1192;97227;-68
2021/11/04 05:13:01;;;;;;;25.50;10.80;;;;;;;7.82;66.76;98109.04;113922;1192;108024;-69
2021/11/04 05:15:31;;;;;;;28.30;12.30;;;;;;;7.84;66.76;98100.91;113527;1193;98988;-70
2021/11/04 05:17:58;;;;;;;24.20;9.90;;;;;;;7.87;66.93;98097.02;113945;1192;96392;-70
2021/11/04 05:20:26;;;;;;;22.50;8.90;;;;;;;7.89;66.84;98094.91;113906;1192;113176;-69
2021/11/04 05:22:57;;;;;;;22.60;9.60;;;;;;;7.92;66.88;98091.37;113780;1193;99019;-68
2021/11/04 05:25:26;;;;;;;22.30;9.30;;;;;;;7.94;66.91;98088.14;113842;1193;107473;-70
2021/11/04 05:27:54;;;;;;;23.20;9.40;;;;;;;7.98;67.02;98090.19;113830;1193;98894;-70
2021/11/04 05:30:22;;;;;;;23.90;9.90;;;;;;;8.00;66.91;98082.41;113674;1192;99012;-71
2021/11/04 05:32:51;;;;;;;23.20;8.90;;;;;;;8.02;67.12;98070.09;113551;1192;112528;-71
2021/11/04 05:35:18;;;;;;;24.40;9.80;;;;;;;8.04;66.87;98063.73;113586;1192;99027;-70
2021/11/04 05:37:48;;;;;;;23.70;9.50;;;;;;;8.06;67.17;98061.31;113867;1192;108149;-71
2021/11/04 05:40:17;;;;;;;22.10;9.60;;;;;;;8.07;67.07;98055.39;113808;1192;99160;-71
2021/11/04 05:42:46;;;;;;;23.80;9.80;;;;;;;8.09;67.10;98051.91;113845;1192;96475;-70
2021/11/04 05:45:13;;;;;;;21.70;9.00;;;;;;;8.10;67.17;98050.78;113828;1192;112575;-70
2021/11/04 05:47:43;;;;;;;20.80;8.30;;;;;;;8.11;67.07;98047.86;113491;1192;99084;-70
2021/11/04 05:50:12;;;;;;;19.90;8.00;;;;;;;8.13;67.15;98045.41;113829;1192;108086;-70
2021/11/04 05:52:40;;;;;;;21.50;8.10;;;;;;;8.15;67.18;98040.11;113586;1192;99012;-71
2021/11/04 05:55:07;;;;;;;22.90;8.00;;;;;;;8.16;67.12;98031.50;113873;1192;98992;-70
2021/11/04 05:57:35;;;;;;;20.70;8.70;;;;;;;8.19;67.09;98028.13;113694;1192;111466;-70
2021/11/04 06:00:05;;;;;;;22.10;10.20;;;;;;;8.20;67.08;98027.16;113559;1192;98990;-71
2021/11/04 06:02:33;;;;;;;22.00;9.30;;;;;;;8.21;67.04;98024.42;113536;1193;107243;-71
2021/11/04 06:05:01;;;;;;;20.20;9.20;;;;;;;8.22;67.02;98018.17;113753;1192;99042;-71
2021/11/04 06:07:29;;;;;;;21.80;9.40;;;;;;;8.23;67.05;98018.64;113669;1192;97064;-72
2021/11/04 06:09:58;;;;;;;22.40;9.00;;;;;;;8.23;67.09;98016.15;113505;1192;112569;-71
2021/11/04 06:12:26;;;;;;;20.70;9.10;;;;;;;8.24;67.10;98008.67;113712;1192;96313;-73
2021/11/04 06:14:54;;;;;;;21.10;8.20;;;;;;;8.23;67.08;98003.61;113641;1192;106587;-72
2021/11/04 06:17:22;;;;;;;19.90;8.30;;;;;;;8.23;67.07;97999.41;113627;1192;98972;-71
2021/11/04 06:19:50;;;;;;;21.50;8.30;;;;;;;8.23;67.16;97990.95;113716;1192;99006;-72
2021/11/04 06:22:18;;;;;;;20.40;8.10;;;;;;;8.23;67.14;97985.64;113668;1192;112502;-72
2021/11/04 06:24:46;;;;;;;19.20;7.80;;;;;;;8.20;67.15;97982.28;113532;1192;96903;-70
2021/11/04 06:27:14;;;;;;;23.40;9.50;;;;;;;8.20;67.17;97977.01;113707;1196;107269;-70
2021/11/04 06:29:41;;;;;;;23.40;8.80;;;;;;;8.21;67.06;97976.05;113649;1192;98984;-71
2021/11/04 06:32:09;;;;;;;22.90;7.90;;;;;;;8.22;67.12;97978.42;113672;1192;99047;-70
2021/11/04 06:34:37;;;;;;;21.80;8.80;;;;;;;8.25;67.13;97985.27;113488;1192;112478;-70
2021/11/04 06:37:05;;;;;;;26.20;10.80;;;;;;;8.29;67.15;97980.17;113509;1192;98920;-70
2021/11/04 06:39:34;;;;;;;26.20;12.10;;;;;;;8.33;67.26;97977.73;113748;1193;107455;-70
2021/11/04 06:42:01;;;;;;;25.20;10.90;;;;;;;8.37;67.06;97981.30;113695;1192;99105;-71
2021/11/04 06:44:31;;;;;;;26.20;10.70;;;;;;;8.41;67.15;97985.55;113527;1192;97119;-71
2021/11/04 06:47:02;;;;;;;24.20;11.00;;;;;;;8.45;67.21;97988.92;113577;1192;111627;-71
2021/11/04 06:49:36;;;;;;;23.40;9.80;;;;;;;8.51;67.24;97993.69;113489;1192;98862;-70
2021/11/04 06:52:11;;;;;;;23.40;9.70;;;;;;;8.56;67.35;97991.86;113708;1192;107556;-73
2021/11/04 06:54:45;;;;;;;23.00;9.80;;;;;;;8.60;67.27;97989.58;113629;1192;98997;-72
2021/11/04 06:57:19;;;;;;;21.90;9.10;;;;;;;8.64;67.26;97987.61;113644;1192;97083;-71
2021/11/04 06:59:50;;;;;;;22.30;9.20;;;;;;;8.70;67.30;97980.29;113501;1193;111523;-70
2021/11/04 07:02:35;;;;;;;21.40;8.30;;;;;;;8.73;67.32;97977.52;113683;1192;98337;-71
2021/11/04 07:05:05;;;;;;;19.80;8.70;;;;;;;8.78;67.31;97979.95;113684;1193;107619;-69
2021/11/04 07:07:44;;;;;;;24.50;9.00;;;;;;;8.82;67.35;97981.23;113460;1192;99011;-70
2021/11/04 07:10:18;;;;;;;23.10;9.10;;;;;;;8.88;67.33;97983.20;113592;1192;98873;-69
2021/11/04 07:12:48;;;;;;;21.00;9.00;;;;;;;8.92;67.29;97976.84;113484;1192;112527;-71
2021/11/04 07:15:20;;;;;;;21.90;8.40;;;;;;;8.97;67.48;97975.56;113630;1193;97066;-70
2021/11/04 07:17:51;;;;;;;20.30;8.10;;;;;;;9.01;67.31;97982.48;113662;1192;107505;-71
2021/11/04 07:20:21;;;;;;;21.90;7.90;;;;;;;9.05;67.31;97991.03;113638;1192;98979;-71
2021/11/04 07:22:54;;;;;;;18.60;7.60;;;;;;;9.09;67.37;97999.20;113576;1192;98973;-72
2021/11/04 07:25:26;;;;;;;19.70;7.70;;;;;;;9.12;67.40;97999.08;113706;1192;112687;-72
2021/11/04 07:28:00;;;;;;;16.90;7.30;;;;;;;9.16;67.36;97994.86;113624;1192;98914;-71
2021/11/04 07:30:31;;;;;;;20.10;7.80;;;;;;;9.20;67.36;97994.37;113563;1192;107494;-71
2021/11/04 07:33:02;;;;;;;22.40;6.90;;;;;;;9.21;67.38;98001.70;113520;1192;98969;-70
2021/11/04 07:35:36;;;;;;;19.90;7.60;;;;;;;9.22;67.27;97996.07;113604;1192;96418;-72
2021/11/04 07:38:13;;;;;;;19.10;7.20;;;;;;;9.25;67.37;97999.08;113585;1192;112459;-73
2021/11/04 07:40:41;;;;;;;24.00;8.10;;;;;;;9.28;67.35;97998.50;113620;1192;96479;-71
2021/11/04 07:43:09;;;;;;;22.10;8.80;;;;;;;9.31;67.35;98004.98;113591;1192;107509;-70
2021/11/04 07:45:37;;;;;;;22.30;9.20;;;;;;;9.33;67.30;98000.19;113634;1192;98956;-71
2021/11/04 07:48:05;;;;;;;21.70;9.20;;;;;;;9.34;67.33;98002.52;113642;1192;99038;-70
2021/11/04 07:50:35;;;;;;;20.80;8.30;;;;;;;9.36;67.28;98000.09;113454;1193;113892;-71
2021/11/04 07:53:04;;;;;;;19.50;8.30;;;;;;;9.38;67.39;97995.89;113640;1193;98921;-70
2021/11/04 07:55:32;;;;;;;19.20;8.00;;;;;;;9.39;67.39;97989.88;113404;1192;107794;-71
2021/11/04 07:57:59;;;;;;;21.90;8.70;;;;;;;9.42;67.33;97995.17;113500;1192;99078;-71
2021/11/04 08:00:29;;;;;;;20.60;7.30;;;;;;;9.41;67.38;97994.92;113638;1192;97122;-72
2021/11/04 08:03:00;;;;;;;19.30;7.20;;;;;;;9.38;67.27;97993.51;113572;1192;112345;-70
2021/11/04 08:05:28;;;;;;;18.90;7.70;;;;;;;9.36;67.36;97996.91;113486;1192;99001;-70
2021/11/04 08:07:56;;;;;;;19.70;7.70;;;;;;;9.37;67.51;97986.21;113394;1192;107999;-69
2021/11/04 08:10:34;;;;;;;21.30;7.00;;;;;;;9.39;67.47;97980.68;113275;1193;98983;-69
2021/11/04 08:13:06;;;;;;;17.30;6.40;;;;;;;9.41;67.46;97977.18;113249;1193;98974;-69
2021/11/04 08:15:36;;;;;;;13.00;4.90;;;;;;;9.45;67.55;97973.68;113528;1192;112493;-71
2021/11/04 08:18:04;;;;;;;11.60;4.60;;;;;;;9.49;67.61;97967.52;113424;1193;99005;-70
2021/11/04 08:20:32;;;;;;;14.50;5.20;;;;;;;9.55;67.92;97969.30;113115;1192;107629;-69
2021/11/04 08:23:01;;;;;;;16.50;5.40;;;;;;;9.64;68.45;97971.02;113214;1186;97268;-71
2021/11/04 08:25:29;;;;;;;14.40;4.90;;;;;;;9.68;68.34;97966.04;113681;1192;96728;-71
2021/11/04 08:27:57;;;;;;;12.30;4.40;;;;;;;9.72;68.37;97956.16;113406;1192;112413;-71
2021/11/04 08:30:25;;;;;;;10.50;4.40;;;;;;;9.79;68.90;97951.14;113200;1193;97202;-72
2021/11/04 08:32:53;;;;;;;12.30;4.80;;;;;;;9.87;69.32;97945.52;113367;1192;106934;-70
2021/11/04 08:35:22;;;;;;;10.90;4.30;;;;;;;9.91;69.36;97938.60;113433;1192;96369;-71
2021/11/04 08:37:50;;;;;;;11.80;4.60;;;;;;;9.95;69.81;97933.79;113511;1192;99369;-70
2021/11/04 08:40:20;;;;;;;11.30;4.50;;;;;;;10.02;70.46;97931.61;113513;1192;112450;-70
2021/11/04 08:42:48;;;;;;;10.40;4.00;;;;;;;10.06;70.73;97925.55;113579;1192;98975;-71
2021/11/04 08:45:19;;;;;;;14.30;4.50;;;;;;;10.11;71.11;97922.97;113413;1193;107427;-71
2021/11/04 08:47:47;;;;;;;11.00;4.00;;;;;;;10.12;70.93;97915.08;113331;1193;99071;-72
2021/11/04 08:50:15;;;;;;;15.00;4.60;;;;;;;10.19;71.49;97909.55;113361;1192;98927;-71
2021/11/04 08:52:43;;;;;;;13.10;4.10;;;;;;;10.24;71.87;97904.42;113512;1192;111750;-70
2021/11/04 08:55:12;;;;;;;10.00;3.70;;;;;;;10.27;71.89;97887.40;113391;1192;99027;-73
2021/11/04 08:57:41;;;;;;;14.70;3.70;;;;;;;10.28;71.98;97877.56;113431;1192;106438;-69
2021/11/04 09:00:13;;;;;;;10.30;3.80;;;;;;;10.29;72.04;97867.38;113505;1192;98892;-72
2021/11/04 09:02:42;;;;;;;12.60;3.70;;;;;;;10.27;72.10;97864.13;113504;1192;98887;-74
2021/11/04 09:05:10;;;;;;;9.60;3.90;;;;;;;10.30;72.46;97857.52;113517;1192;112332;-71
2021/11/04 09:07:44;;;;;;;12.20;4.20;;;;;;;10.34;72.76;97841.44;113676;1192;99004;-72
2021/11/04 09:10:20;;;;;;;12.10;4.30;;;;;;;10.33;72.49;97829.07;113612;1192;107498;-73
2021/11/04 09:12:49;;;;;;;12.90;4.20;;;;;;;10.35;72.61;97818.66;113581;1192;98991;-70
2021/11/04 09:15:18;;;;;;;10.20;3.50;;;;;;;10.38;72.55;97809.19;113087;1193;99042;-69
2021/11/04 09:17:46;;;;;;;11.60;3.50;;;;;;;10.45;73.11;97800.20;113350;1193;112593;-70
2021/11/04 09:20:18;;;;;;;10.50;3.60;;;;;;;10.52;73.30;97793.13;113734;1192;98949;-70
2021/11/04 09:22:49;;;;;;;9.90;3.70;;;;;;;10.57;73.25;97785.62;113517;1192;107648;-71
2021/11/04 09:25:21;;;;;;;14.90;4.30;;;;;;;10.63;73.22;97782.24;113576;1192;97347;-71
2021/11/04 09:27:56;;;;;;;8.90;3.80;;;;;;;10.68;73.18;97776.66;113585;1192;98898;-70
2021/11/04 09:30:26;;;;;;;10.40;3.90;;;;;;;10.73;73.24;97770.30;113535;1193;112361;-70
2021/11/04 09:32:58;;;;;;;11.40;4.10;;;;;;;10.78;73.06;97763.34;113673;1192;96416;-70
2021/11/04 09:35:26;;;;;;;9.70;3.90;;;;;;;10.82;73.08;97767.91;113538;1192;107610;-71
2021/11/04 09:37:54;;;;;;;12.30;4.60;;;;;;;10.87;73.08;97767.25;113330;1192;98184;-70
2021/11/04 09:40:22;;;;;;;11.70;4.70;;;;;;;10.93;73.26;97767.39;113623;1193;98930;-70
2021/11/04 09:42:50;;;;;;;10.50;3.50;;;;;;;10.99;73.31;97770.00;113686;1192;112130;-69
2021/11/04 09:45:18;;;;;;;12.40;3.90;;;;;;;11.05;73.03;97775.98;113654;1192;99080;-72
2021/11/04 09:47:46;;;;;;;9.30;3.70;;;;;;;11.12;72.94;97773.01;113576;1192;107604;-73
2021/11/04 09:50:19;;;;;;;5.90;3.40;;;;;;;11.19;72.84;97778.42;113356;1193;96640;-73
2021/11/04 09:52:54;;;;;;;8.70;3.30;;;;;;;11.26;73.08;97781.83;113391;1193;97058;-70
2021/11/04 09:55:31;;;;;;;9.30;3.70;;;;;;;11.32;72.92;97789.95;113662;1192;112529;-73
2021/11/04 09:58:04;;;;;;;16.00;4.60;;;;;;;11.39;73.06;97808.98;113322;1193;98999;-70
2021/11/04 10:00:41;;;;;;;13.20;4.20;;;;;;;11.46;72.99;97826.22;113588;1192;107584;-70
2021/11/04 10:03:15;;;;;;;15.20;5.80;;;;;;;11.49;72.87;97834.70;113658;1192;98988;-74
2021/11/04 10:05:52;;;;;;;13.60;5.40;;;;;;;11.48;72.73;97851.43;113590;1192;98914;-71
2021/11/04 10:08:40;;;;;;;16.50;5.60;;;;;;;11.45;72.62;97846.88;113455;1193;112532;-71
2021/11/04 10:11:11;;;;;;;14.40;5.80;;;;;;;11.43;72.79;97847.31;113780;1193;99384;-72
2021/11/04 10:13:45;;;;;;;15.10;5.60;;;;;;;11.40;72.78;97856.14;113652;1193;105731;-70
2021/11/04 10:16:18;;;;;;;16.90;5.40;;;;;;;11.42;72.98;97851.52;113668;1192;98910;-72
2021/11/04 10:19:02;;;;;;;13.60;5.20;;;;;;;11.43;72.93;97850.14;113576;1193;99001;-70
2021/11/04 10:21:51;;;;;;;17.10;5.90;;;;;;;11.48;72.94;97852.73;113691;1193;112252;-69
2021/11/04 10:24:23;;;;;;;12.80;4.20;;;;;;;11.55;72.85;97848.80;113620;1192;97301;-71
2021/11/04 10:26:56;;;;;;;11.00;4.50;;;;;;;11.63;72.84;97839.86;113542;1192;106521;-71
2021/11/04 10:29:34;;;;;;;11.00;4.20;;;;;;;11.70;72.73;97853.27;113641;1192;99096;-70
2021/11/04 10:32:02;;;;;;;14.10;5.10;;;;;;;11.75;72.68;97857.41;113519;1192;99000;-72
2021/11/04 10:34:35;;;;;;;16.80;6.70;;;;;;;11.80;72.49;97849.19;113693;1193;112384;-71
2021/11/04 10:37:16;;;;;;;12.60;5.00;;;;;;;11.87;72.43;97859.10;113691;1192;98717;-72
2021/11/04 10:39:48;;;;;;;14.00;4.80;;;;;;;11.92;72.43;97867.99;113559;1192;107527;-71
2021/11/04 10:42:16;;;;;;;15.10;4.80;;;;;;;11.95;72.32;97874.14;113441;1178;98909;-70
2021/11/04 10:44:43;;;;;;;13.70;4.90;;;;;;;11.96;72.20;97872.94;113553;1192;98987;-73
2021/11/04 10:47:21;;;;;;;18.10;6.40;;;;;;;11.95;72.17;97873.56;113650;1192;112175;-72
2021/11/04 10:49:54;;;;;;;20.20;6.00;;;;;;;11.95;72.15;97864.56;113580;1192;98933;-71
2021/11/04 10:52:28;;;;;;;13.30;5.00;;;;;;;11.95;71.91;97856.01;113505;1193;107057;-70
2021/11/04 10:54:56;;;;;;;11.80;4.40;;;;;;;11.97;71.69;97856.02;113646;1192;96415;-73
2021/11/04 10:57:42;;;;;;;13.70;4.60;;;;;;;11.99;71.60;97854.03;113596;1193;99070;-71
2021/11/04 11:00:22;;;;;;;14.20;5.40;;;;;;;12.01;71.56;97838.71;113659;1184;112504;-71
2021/11/04 11:02:56;;;;;;;17.30;5.20;;;;;;;12.04;71.55;97825.67;113617;1193;98934;-73
2021/11/04 11:05:39;;;;;;;11.40;4.20;;;;;;;12.09;71.65;97815.00;113634;1193;107555;-72
2021/11/04 11:08:13;;;;;;;12.60;4.90;;;;;;;12.23;71.53;97820.24;113544;1192;98895;-72
2021/11/04 11:10:48;;;;;;;13.10;4.10;;;;;;;12.31;71.60;97817.36;113525;1192;99006;-72
2021/11/04 11:13:25;;;;;;;13.90;4.70;;;;;;;12.40;71.50;97802.93;113696;1192;112512;-71
2021/11/04 11:15:56;;;;;;;13.50;4.90;;;;;;;12.46;71.45;97799.81;113421;1193;99021;-71
2021/11/04 11:18:29;;;;;;;15.50;5.00;;;;;;;12.49;71.40;97788.06;113599;1192;107604;-71
2021/11/04 11:20:58;;;;;;;13.10;4.50;;;;;;;12.54;71.50;97787.34;113702;1193;99027;-71
2021/11/04 11:23:28;;;;;;;12.00;5.10;;;;;;;12.57;71.50;97789.10;113738;1192;98897;-70
2021/11/04 11:26:02;;;;;;;17.60;5.80;;;;;;;12.62;71.58;97796.65;113755;1192;113142;-72
2021/11/04 11:28:36;;;;;;;12.40;4.90;;;;;;;12.68;71.63;97804.52;113957;1191;98242;-71
2021/11/04 11:31:13;;;;;;;11.70;4.80;;;;;;;12.75;71.76;97807.00;113648;1193;107478;-68